Main page
METAR-TAF:

METAR-TAF

Airports :

Gibraltar, Gibraltar

Gibraltar International Airport

latitude: 36-09N, longitude: 005-21W, elevation: 5 m

Current weather observation

The report was made 22 minutes ago, at 06:50 UTC
Wind 7 kt from the West
Temperature 12°C
Humidity 76%
Pressure 1020 hPa
Visibility 10 km or more
Few clouds at a height of 1800 ft

METAR: LXGB 180650Z 27007KT 9999 FEW018 12/08 Q1020 NOSIG

Time: 08:12 (07:12 UTC)

Forecast

The report was made 1 hour and 55 minutes ago, at 05:17 UTC
Forecast valid from 18 at 06 UTC to 18 at 15 UTC
Wind 8 kt from the West
Visibility 10 km or more
Scattered clouds at a height of 3000 ft
Becoming
from 18 at 07 UTC to 18 at 11 UTC
Wind 8 kt from the East/Northeast
Temporary
from 18 at 08 UTC to 18 at 15 UTC
Scattered clouds at a height of 1500 ft

TAF: LXGB 180517Z 1806/1815 26008KT 9999 SCT030 BECMG 1807/1811 07008KT TEMPO 1808/1815 SCT015

Weather observations and forecasts of more than 4000 airports (METAR and TAF reports).

The available stations are represented by yellow and red dots on the map.

Hover mouse over dot to see the name of the station.

Then click to see weather observations and forecasts.

To change the map : click on the green buttons with a black cross to zoom in, on the green button with a dash to zoom out, or on the green arrows for adjacent maps.


METAR-TAF: